Time;durP1;ratioP1;P1;durP2;ratioP2;P2;SDS_P1;SDS_P2;PMS_P1;PMS_P2;Temp;Humidity;BMP_temperature;BMP_pressure;BME280_temperature;BME280_humidity;BME280_pressure;Samples;Min_cycle;Max_cycle;Signal;HPM_P1;HPM_P2
2022/12/30 00:01:05;;;;;;;;;;;6.30;99.90;;;;;;5090012;28;1945;-69
2022/12/30 00:03:30;;;;;;;;;;;6.00;99.90;;;;;;5072289;28;1167;-70
2022/12/30 00:05:56;;;;;;;;;;;6.20;99.90;;;;;;5090946;28;1120;-70
2022/12/30 00:11:06;;;;;;;;;;;6.00;99.90;;;;;;5078430;28;1109;-70
2022/12/30 00:33:08;;;;;;;;;;;5.80;99.90;;;;;;5080614;28;1223;-70
2022/12/30 00:35:35;;;;;;;;;;;5.80;99.90;;;;;;5082092;28;1289;-70
2022/12/30 00:38:00;;;;;;;;;;;5.70;99.90;;;;;;5089552;28;1096;-70
2022/12/30 00:40:26;;;;;;;;;;;5.80;99.90;;;;;;5088687;28;1902;-70
2022/12/30 00:43:08;;;;;;;;;;;5.80;99.90;;;;;;5075241;28;1093;-70
2022/12/30 00:45:35;;;;;;;;;;;5.80;99.90;;;;;;5079936;28;1132;-70
2022/12/30 00:48:00;;;;;;;;;;;5.80;99.90;;;;;;5090302;28;1440;-70
2022/12/30 00:56:10;;;;;;;;;;;5.60;99.90;;;;;;5048645;28;1089;-70
2022/12/30 00:58:36;;;;;;;;;;;5.50;99.90;;;;;;5049741;28;1096;-70
2022/12/30 01:01:01;;;;;;;;;;;5.40;99.90;;;;;;5048393;28;1914;-70
2022/12/30 01:03:27;;;;;;;;;;;5.40;99.90;;;;;;5049706;28;1179;-70
2022/12/30 01:05:53;;;;;;;;;;;5.40;99.90;;;;;;5047753;28;1168;-70
2022/12/30 01:08:18;;;;;;;;;;;5.80;99.90;;;;;;5048090;28;1160;-70
2022/12/30 01:10:44;;;;;;;;;;;5.30;99.90;;;;;;5047279;28;1086;-70
2022/12/30 01:13:10;;;;;;;;;;;5.30;99.90;;;;;;5048633;28;1169;-70
2022/12/30 01:15:35;;;;;;;;;;;5.30;99.90;;;;;;5049739;28;1183;-70
2022/12/30 01:18:01;;;;;;;;;;;5.30;99.90;;;;;;5048281;28;970;-70
2022/12/30 01:20:27;;;;;;;;;;;5.20;99.90;;;;;;5048265;28;1914;-70
2022/12/30 01:22:53;;;;;;;;;;;5.30;99.90;;;;;;5036854;28;1410;-70
2022/12/30 01:25:19;;;;;;;;;;;5.20;99.90;;;;;;5049354;28;1227;-69
2022/12/30 01:27:49;;;;;;;;;;;5.10;99.90;;;;;;5047907;28;1237;-70
2022/12/30 01:30:14;;;;;;;;;;;5.10;99.90;;;;;;5049311;28;1210;-70
2022/12/30 01:32:41;;;;;;;;;;;5.20;99.90;;;;;;5048842;28;1148;-70
2022/12/30 01:35:07;;;;;;;;;;;5.20;99.90;;;;;;5044503;28;1136;-70
2022/12/30 01:37:33;;;;;;;;;;;5.20;99.90;;;;;;5040653;28;1132;-70
2022/12/30 01:39:58;;;;;;;;;;;5.20;99.90;;;;;;5049147;28;1104;-70
2022/12/30 01:42:25;;;;;;;;;;;5.30;99.90;;;;;;5048365;28;1191;-70
2022/12/30 01:44:53;;;;;;;;;;;5.30;99.90;;;;;;5048446;28;1120;-70
2022/12/30 01:47:22;;;;;;;;;;;5.30;99.90;;;;;;5048792;28;1335;-70
2022/12/30 01:49:50;;;;;;;;;;;5.20;99.90;;;;;;5048339;28;1148;-69
2022/12/30 01:52:17;;;;;;;;;;;5.20;99.90;;;;;;5049112;28;1104;-70
2022/12/30 01:54:43;;;;;;;;;;;5.20;99.90;;;;;;5064759;28;1320;-69
2022/12/30 01:57:09;;;;;;;;;;;5.20;99.90;;;;;;5088069;28;1170;-69
2022/12/30 01:59:35;;;;;;;;;;;5.20;99.90;;;;;;5089033;28;1004;-70
2022/12/30 02:02:01;;;;;;;;;;;5.30;99.90;;;;;;5081757;28;1915;-70
2022/12/30 02:04:27;;;;;;;;;;;5.30;99.90;;;;;;5087524;28;1218;-70
2022/12/30 02:07:03;;;;;;;;;;;5.30;99.90;;;;;;5089086;28;1158;-69
2022/12/30 02:09:30;;;;;;;;;;;5.40;99.90;;;;;;5079571;28;1250;-70
2022/12/30 02:11:57;;;;;;;;;;;5.40;99.90;;;;;;5069050;28;1211;-70
2022/12/30 02:14:23;;;;;;;;;;;5.30;99.90;;;;;;5071250;28;1104;-69
2022/12/30 02:16:49;;;;;;;;;;;5.40;99.90;;;;;;5088263;28;1181;-70
2022/12/30 02:19:31;;;;;;;;;;;5.40;99.90;;;;;;5084999;28;1322;-70
2022/12/30 02:21:58;;;;;;;;;;;5.40;99.90;;;;;;5085840;28;1961;-70
2022/12/30 02:24:23;;;;;;;;;;;5.40;99.90;;;;;;5088374;28;1091;-70
2022/12/30 02:26:55;;;;;;;;;;;5.40;99.90;;;;;;5088563;28;1312;-70
2022/12/30 02:29:37;;;;;;;;;;;5.40;99.90;;;;;;5085950;28;1126;-70
2022/12/30 02:32:02;;;;;;;;;;;5.40;99.90;;;;;;5087978;28;1138;-69
2022/12/30 02:34:32;;;;;;;;;;;5.40;99.90;;;;;;5088363;28;1133;-70
2022/12/30 02:37:10;;;;;;;;;;;5.40;99.90;;;;;;5071848;28;1167;-70
2022/12/30 02:39:42;;;;;;;;;;;5.40;99.90;;;;;;5082913;28;1169;-70
2022/12/30 02:45:08;;;;;;;;;;;5.50;99.90;;;;;;5078193;28;1131;-70
2022/12/30 02:47:38;;;;;;;;;;;5.50;99.90;;;;;;5088377;28;1389;-69
2022/12/30 02:52:51;;;;;;;;;;;5.40;99.90;;;;;;5073622;28;1676;-69
2022/12/30 02:55:17;;;;;;;;;;;5.40;99.90;;;;;;5083224;28;1320;-69
2022/12/30 02:57:43;;;;;;;;;;;5.40;99.90;;;;;;5090106;28;1132;-69
2022/12/30 03:05:58;;;;;;;;;;;5.30;99.90;;;;;;5070233;28;1211;-69
2022/12/30 03:08:30;;;;;;;;;;;5.20;99.90;;;;;;5092284;28;1019;-70
2022/12/30 03:11:16;;;;;;;;;;;5.20;99.90;;;;;;5091908;28;1123;-69
2022/12/30 03:14:01;;;;;;;;;;;5.20;99.90;;;;;;5072657;28;1095;-70
2022/12/30 03:16:31;;;;;;;;;;;5.20;99.90;;;;;;5092590;28;1172;-70
2022/12/30 03:18:58;;;;;;;;;;;5.20;99.90;;;;;;5091807;28;1358;-69
2022/12/30 03:21:25;;;;;;;;;;;5.10;99.90;;;;;;5086051;28;1906;-69
2022/12/30 03:29:24;;;;;;;;;;;5.10;99.90;;;;;;5073567;28;1158;-69
2022/12/30 03:31:50;;;;;;;;;;;5.00;99.90;;;;;;5078038;28;1055;-69
2022/12/30 03:34:16;;;;;;;;;;;5.00;99.90;;;;;;5090876;28;1095;-69
2022/12/30 03:36:43;;;;;;;;;;;5.00;99.90;;;;;;5090965;28;1072;-69
2022/12/30 03:39:13;;;;;;;;;;;5.00;99.90;;;;;;5086348;28;1103;-70
2022/12/30 03:41:40;;;;;;;;;;;5.00;99.90;;;;;;5088854;28;1984;-69
2022/12/30 03:44:08;;;;;;;;;;;5.10;99.90;;;;;;5082054;28;1135;-69
2022/12/30 03:46:33;;;;;;;;;;;5.00;99.90;;;;;;5090840;28;1045;-70
2022/12/30 03:48:59;;;;;;;;;;;5.10;99.90;;;;;;5089370;28;1556;-69
2022/12/30 03:51:25;;;;;;;;;;;5.10;99.90;;;;;;5091514;28;1115;-69
2022/12/30 03:53:51;;;;;;;;;;;5.10;99.90;;;;;;5091521;28;1099;-69
2022/12/30 03:56:16;;;;;;;;;;;5.10;99.90;;;;;;5089416;28;1084;-70
2022/12/30 03:58:42;;;;;;;;;;;5.10;99.90;;;;;;5083515;28;1303;-70
2022/12/30 04:01:08;;;;;;;;;;;5.40;99.90;;;;;;5091307;28;2043;-70
2022/12/30 04:03:33;;;;;;;;;;;5.10;99.90;;;;;;5090257;28;1214;-69
2022/12/30 04:05:59;;;;;;;;;;;5.30;99.90;;;;;;5089367;28;1108;-70
2022/12/30 04:08:25;;;;;;;;;;;5.00;99.90;;;;;;5091352;28;1000;-69
2022/12/30 04:10:50;;;;;;;;;;;5.00;99.90;;;;;;5090083;28;1096;-69
2022/12/30 04:13:16;;;;;;;;;;;5.00;99.90;;;;;;5091160;28;1166;-69
2022/12/30 04:15:46;;;;;;;;;;;4.90;99.90;;;;;;5081516;28;1087;-69
2022/12/30 04:18:12;;;;;;;;;;;5.00;99.90;;;;;;5090580;28;1055;-69
2022/12/30 04:20:37;;;;;;;;;;;5.20;99.90;;;;;;5090383;28;1902;-70
2022/12/30 04:23:03;;;;;;;;;;;5.00;99.90;;;;;;5087796;28;1085;-69
2022/12/30 04:25:29;;;;;;;;;;;5.00;99.90;;;;;;5089549;28;1117;-69
2022/12/30 04:27:54;;;;;;;;;;;5.00;99.90;;;;;;5090776;28;1485;-69
2022/12/30 04:30:20;;;;;;;;;;;5.00;99.90;;;;;;5090078;28;1111;-69
2022/12/30 04:32:45;;;;;;;;;;;5.00;99.90;;;;;;5080688;28;1067;-69
2022/12/30 04:35:11;;;;;;;;;;;5.20;99.90;;;;;;5085251;28;1109;-69
2022/12/30 04:37:37;;;;;;;;;;;5.00;99.90;;;;;;5081794;28;1108;-69
2022/12/30 04:40:02;;;;;;;;;;;5.00;99.90;;;;;;5089833;28;1115;-69
2022/12/30 04:42:28;;;;;;;;;;;5.00;99.90;;;;;;5085801;28;1942;-69
2022/12/30 04:44:54;;;;;;;;;;;5.00;99.90;;;;;;5089527;28;1079;-69
2022/12/30 04:47:19;;;;;;;;;;;5.00;99.90;;;;;;5090050;28;1386;-69
2022/12/30 04:49:45;;;;;;;;;;;5.10;99.90;;;;;;5089726;28;1096;-69
2022/12/30 04:52:11;;;;;;;;;;;5.00;99.90;;;;;;5089616;28;1164;-69
2022/12/30 04:54:36;;;;;;;;;;;5.00;99.90;;;;;;5089711;28;1219;-69
2022/12/30 04:57:02;;;;;;;;;;;5.00;99.90;;;;;;5089897;28;1088;-70
2022/12/30 04:59:28;;;;;;;;;;;5.00;99.90;;;;;;5083426;28;1155;-69
2022/12/30 05:01:53;;;;;;;;;;;5.00;99.90;;;;;;5089730;28;1943;-69
2022/12/30 05:04:20;;;;;;;;;;;5.10;99.90;;;;;;5071932;28;1179;-69
2022/12/30 05:06:46;;;;;;;;;;;5.10;99.90;;;;;;5089181;28;1103;-69
2022/12/30 05:09:11;;;;;;;;;;;5.10;99.90;;;;;;5076167;28;1131;-70
2022/12/30 05:11:37;;;;;;;;;;;5.10;99.90;;;;;;5089740;28;1124;-69
2022/12/30 05:14:03;;;;;;;;;;;5.10;99.90;;;;;;5089295;28;1095;-69
2022/12/30 05:16:28;;;;;;;;;;;5.10;99.90;;;;;;5084249;28;1084;-70
2022/12/30 05:18:54;;;;;;;;;;;5.10;99.90;;;;;;5069984;28;1366;-69
2022/12/30 05:21:19;;;;;;;;;;;5.10;99.90;;;;;;5088967;28;1902;-69
2022/12/30 05:26:29;;;;;;;;;;;5.10;99.90;;;;;;5087950;28;1340;-69
2022/12/30 05:28:55;;;;;;;;;;;5.10;99.90;;;;;;5071293;28;1111;-69
2022/12/30 05:31:21;;;;;;;;;;;5.00;99.90;;;;;;5071147;28;1128;-69
2022/12/30 05:33:46;;;;;;;;;;;5.10;99.90;;;;;;5084098;28;1083;-70
2022/12/30 05:36:12;;;;;;;;;;;5.10;99.90;;;;;;5089417;28;1182;-69
2022/12/30 05:38:38;;;;;;;;;;;5.10;99.90;;;;;;5089307;28;1151;-69
2022/12/30 05:41:04;;;;;;;;;;;5.10;99.90;;;;;;5088533;28;2008;-70
2022/12/30 05:43:30;;;;;;;;;;;5.10;99.90;;;;;;5081999;28;1185;-70
2022/12/30 05:45:57;;;;;;;;;;;5.10;99.90;;;;;;5083571;28;1092;-70
2022/12/30 05:48:23;;;;;;;;;;;5.10;99.90;;;;;;5061485;28;1593;-70
2022/12/30 05:50:49;;;;;;;;;;;5.10;99.90;;;;;;5089372;28;1071;-70
2022/12/30 05:53:14;;;;;;;;;;;5.10;99.90;;;;;;5078734;28;1208;-70
2022/12/30 05:55:40;;;;;;;;;;;5.10;99.90;;;;;;5069971;28;1121;-70
2022/12/30 05:58:06;;;;;;;;;;;5.10;99.90;;;;;;5089155;28;1043;-70
2022/12/30 06:00:31;;;;;;;;;;;5.10;99.90;;;;;;5085140;28;1910;-70
2022/12/30 06:02:57;;;;;;;;;;;5.10;99.90;;;;;;5088534;28;1283;-70
2022/12/30 06:05:23;;;;;;;;;;;5.10;99.90;;;;;;5089010;28;1001;-70
2022/12/30 06:07:48;;;;;;;;;;;5.00;99.90;;;;;;5088821;28;1154;-70
2022/12/30 06:10:14;;;;;;;;;;;5.00;99.90;;;;;;5077860;28;1179;-70
2022/12/30 06:12:40;;;;;;;;;;;5.10;99.90;;;;;;5089128;28;1124;-70
2022/12/30 06:15:06;;;;;;;;;;;5.00;99.90;;;;;;5088868;28;1127;-70
2022/12/30 06:17:32;;;;;;;;;;;5.00;99.90;;;;;;5088391;28;1021;-70
2022/12/30 06:19:57;;;;;;;;;;;4.90;99.90;;;;;;5087048;28;1299;-70
2022/12/30 06:22:23;;;;;;;;;;;4.90;99.90;;;;;;5092705;28;1906;-70
2022/12/30 06:24:49;;;;;;;;;;;4.80;99.90;;;;;;5074565;28;1167;-70
2022/12/30 06:27:14;;;;;;;;;;;4.80;99.90;;;;;;5087729;28;1648;-70
2022/12/30 06:29:40;;;;;;;;;;;4.80;99.90;;;;;;5085658;28;1164;-70
2022/12/30 06:32:06;;;;;;;;;;;4.70;99.90;;;;;;5090470;28;1115;-70
2022/12/30 06:34:31;;;;;;;;;;;4.80;99.90;;;;;;5086453;28;1105;-70
2022/12/30 06:36:57;;;;;;;;;;;4.80;99.90;;;;;;5086307;28;1185;-70
2022/12/30 06:39:23;;;;;;;;;;;4.70;99.90;;;;;;5092414;28;1100;-70
2022/12/30 06:41:48;;;;;;;;;;;4.80;99.90;;;;;;5074604;28;1914;-70
2022/12/30 06:44:14;;;;;;;;;;;4.60;99.90;;;;;;5092093;28;1107;-70
2022/12/30 06:46:39;;;;;;;;;;;4.60;99.90;;;;;;5078312;28;1130;-70
2022/12/30 06:49:05;;;;;;;;;;;4.60;99.90;;;;;;5092652;28;1477;-70
2022/12/30 06:51:31;;;;;;;;;;;4.60;99.90;;;;;;5091468;28;1265;-70
2022/12/30 06:53:56;;;;;;;;;;;4.60;99.90;;;;;;5085528;28;1222;-69
2022/12/30 06:56:22;;;;;;;;;;;4.60;99.90;;;;;;5092144;28;1136;-70
2022/12/30 06:58:48;;;;;;;;;;;4.60;99.90;;;;;;5091706;28;1152;-70
2022/12/30 07:01:13;;;;;;;;;;;4.60;99.90;;;;;;5073692;28;1937;-70
2022/12/30 07:03:39;;;;;;;;;;;4.70;99.90;;;;;;5091421;28;1185;-70
2022/12/30 07:06:05;;;;;;;;;;;4.60;99.90;;;;;;5091580;28;1135;-70
2022/12/30 07:08:31;;;;;;;;;;;4.60;99.90;;;;;;5092236;28;1096;-70
2022/12/30 07:10:57;;;;;;;;;;;4.60;99.90;;;;;;5073016;28;1124;-70
2022/12/30 07:13:22;;;;;;;;;;;4.60;99.90;;;;;;5083660;28;1144;-70
2022/12/30 07:15:48;;;;;;;;;;;4.60;99.90;;;;;;5091872;28;1143;-70
2022/12/30 07:18:14;;;;;;;;;;;4.60;99.90;;;;;;5092145;28;972;-70
2022/12/30 07:20:39;;;;;;;;;;;4.60;99.90;;;;;;5088452;28;1930;-70
2022/12/30 07:23:05;;;;;;;;;;;4.60;99.90;;;;;;5091984;28;1120;-70
2022/12/30 07:25:31;;;;;;;;;;;4.60;99.90;;;;;;5091710;28;1143;-70
2022/12/30 07:27:58;;;;;;;;;;;4.70;99.90;;;;;;5073176;28;1427;-70
2022/12/30 07:30:24;;;;;;;;;;;4.70;99.90;;;;;;5081314;28;1092;-70
2022/12/30 07:32:49;;;;;;;;;;;4.70;99.90;;;;;;5084090;28;1235;-70
2022/12/30 07:35:15;;;;;;;;;;;4.70;99.90;;;;;;5091770;28;1219;-70
2022/12/30 07:37:41;;;;;;;;;;;4.80;99.90;;;;;;5088840;28;1059;-70
2022/12/30 07:40:07;;;;;;;;;;;4.80;99.90;;;;;;5090608;28;1191;-70
2022/12/30 07:42:32;;;;;;;;;;;4.80;99.90;;;;;;5091714;28;1914;-70
2022/12/30 07:44:58;;;;;;;;;;;4.80;99.90;;;;;;5082859;28;1178;-70
2022/12/30 07:47:24;;;;;;;;;;;4.80;99.90;;;;;;5071741;28;1354;-70
2022/12/30 07:49:49;;;;;;;;;;;4.80;99.90;;;;;;5091398;28;1179;-70
2022/12/30 07:52:15;;;;;;;;;;;4.80;99.90;;;;;;5072859;28;1084;-70
2022/12/30 07:54:40;;;;;;;;;;;4.80;99.90;;;;;;5071175;28;1470;-70
2022/12/30 07:57:06;;;;;;;;;;;4.80;99.90;;;;;;5077670;28;1301;-70
2022/12/30 07:59:32;;;;;;;;;;;4.80;99.90;;;;;;5090315;28;1021;-70
2022/12/30 08:01:57;;;;;;;;;;;4.90;99.90;;;;;;5090505;28;1910;-70
2022/12/30 08:04:23;;;;;;;;;;;4.80;99.90;;;;;;5068579;28;1104;-70
2022/12/30 08:06:49;;;;;;;;;;;4.80;99.90;;;;;;5078360;28;1204;-70
2022/12/30 08:09:14;;;;;;;;;;;4.80;99.90;;;;;;5081130;28;1139;-69
2022/12/30 08:11:40;;;;;;;;;;;4.80;99.90;;;;;;5082414;28;1227;-69
2022/12/30 08:14:05;;;;;;;;;;;4.70;99.90;;;;;;5069456;28;1152;-70
2022/12/30 08:16:31;;;;;;;;;;;4.90;99.90;;;;;;5070413;28;1282;-70
2022/12/30 08:18:57;;;;;;;;;;;4.80;99.90;;;;;;5082945;28;1124;-69
2022/12/30 08:21:22;;;;;;;;;;;4.80;99.90;;;;;;5082026;28;1976;-70
2022/12/30 08:23:48;;;;;;;;;;;4.70;99.90;;;;;;5081550;28;1242;-70
2022/12/30 08:26:15;;;;;;;;;;;4.70;99.90;;;;;;5081466;28;1334;-70
2022/12/30 08:28:41;;;;;;;;;;;4.70;99.90;;;;;;5080365;28;1120;-69
2022/12/30 08:31:13;;;;;;;;;;;4.70;99.90;;;;;;5067459;28;1215;-69
2022/12/30 08:33:39;;;;;;;;;;;4.70;99.90;;;;;;5070781;28;1081;-69
2022/12/30 08:36:06;;;;;;;;;;;4.70;99.90;;;;;;5079479;28;1246;-70
2022/12/30 08:38:33;;;;;;;;;;;4.70;99.90;;;;;;5086110;28;1104;-70
2022/12/30 08:41:07;;;;;;;;;;;4.70;99.90;;;;;;5076599;28;1909;-70
2022/12/30 08:43:33;;;;;;;;;;;4.70;99.90;;;;;;5077142;28;1113;-70
2022/12/30 08:45:59;;;;;;;;;;;4.80;99.90;;;;;;5090351;28;1084;-70
2022/12/30 08:48:24;;;;;;;;;;;4.80;99.90;;;;;;5089676;28;1620;-70
2022/12/30 08:50:52;;;;;;;;;;;4.90;99.90;;;;;;5089187;28;1104;-70
2022/12/30 08:53:18;;;;;;;;;;;4.90;99.90;;;;;;5090152;28;1096;-70
2022/12/30 08:55:44;;;;;;;;;;;4.90;99.90;;;;;;5089865;28;1258;-70
2022/12/30 08:58:09;;;;;;;;;;;4.90;99.90;;;;;;5087962;28;1138;-70
2022/12/30 09:00:36;;;;;;;;;;;5.00;99.90;;;;;;5089933;28;1898;-70
2022/12/30 09:03:02;;;;;;;;;;;5.00;99.90;;;;;;5090213;28;1206;-70
2022/12/30 09:05:28;;;;;;;;;;;5.10;99.90;;;;;;5089121;28;1100;-70
2022/12/30 09:07:54;;;;;;;;;;;5.10;99.90;;;;;;5081558;28;1165;-70
2022/12/30 09:10:20;;;;;;;;;;;5.10;99.90;;;;;;5089718;28;1151;-70
2022/12/30 09:12:45;;;;;;;;;;;5.20;99.90;;;;;;5089208;28;1068;-70
2022/12/30 09:15:11;;;;;;;;;;;5.30;99.90;;;;;;5086634;28;1190;-70
2022/12/30 09:17:37;;;;;;;;;;;5.30;99.90;;;;;;5089771;28;1072;-70
2022/12/30 09:20:02;;;;;;;;;;;5.40;99.90;;;;;;5088682;28;1360;-70
2022/12/30 09:22:28;;;;;;;;;;;5.50;99.90;;;;;;5081664;28;1967;-70
2022/12/30 09:24:54;;;;;;;;;;;5.40;99.90;;;;;;5065963;28;1195;-70
2022/12/30 09:27:19;;;;;;;;;;;5.40;99.90;;;;;;5068002;28;1933;-70
2022/12/30 09:29:45;;;;;;;;;;;5.40;99.90;;;;;;5084616;28;1149;-70
2022/12/30 09:32:11;;;;;;;;;;;5.50;99.90;;;;;;5089741;28;1076;-70
2022/12/30 09:34:37;;;;;;;;;;;5.70;99.90;;;;;;5088246;28;1161;-70
2022/12/30 09:37:02;;;;;;;;;;;5.60;99.90;;;;;;5089191;28;1115;-70
2022/12/30 09:39:34;;;;;;;;;;;5.60;99.90;;;;;;5088508;28;1091;-70
2022/12/30 09:44:46;;;;;;;;;;;5.70;99.90;;;;;;5076952;28;3139;-70
2022/12/30 09:47:13;;;;;;;;;;;5.80;99.90;;;;;;5078176;28;1315;-70
2022/12/30 09:49:42;;;;;;;;;;;5.70;99.90;;;;;;5070857;28;3058;-70
2022/12/30 09:52:09;;;;;;;;;;;5.70;99.90;;;;;;5054365;28;1455;-70
2022/12/30 09:54:37;;;;;;;;;;;5.80;99.90;;;;;;5077254;28;1271;-70
2022/12/30 09:57:33;;;;;;;;;;;5.90;99.90;;;;;;5069870;28;1397;-70
2022/12/30 09:59:53;;;;;;;;;;;5.80;99.90;;;;;;5074706;28;1624;-70
2022/12/30 10:02:21;;;;;;;;;;;5.90;99.90;;;;;;5068975;28;3243;-70
2022/12/30 10:04:47;;;;;;;;;;;5.90;99.90;;;;;;5082895;28;1456;-70
2022/12/30 10:07:16;;;;;;;;;;;5.90;99.90;;;;;;5078353;28;1267;-70
2022/12/30 10:09:48;;;;;;;;;;;6.00;99.90;;;;;;5075585;28;1230;-70
2022/12/30 10:12:13;;;;;;;;;;;5.90;99.90;;;;;;5069258;28;1161;-70
2022/12/30 10:14:45;;;;;;;;;;;5.90;99.90;;;;;;5072819;28;1111;-70
2022/12/30 10:17:20;;;;;;;;;;;6.00;99.90;;;;;;5080543;28;1180;-71
2022/12/30 10:19:51;;;;;;;;;;;6.00;99.90;;;;;;5080056;28;1231;-70
2022/12/30 10:22:24;;;;;;;;;;;6.10;99.90;;;;;;5087541;28;1913;-70
2022/12/30 10:24:50;;;;;;;;;;;6.10;99.90;;;;;;5088526;28;1129;-70
2022/12/30 10:27:19;;;;;;;;;;;6.10;99.90;;;;;;5085515;28;1182;-70
2022/12/30 10:29:45;;;;;;;;;;;6.10;99.90;;;;;;5087897;28;1194;-70
2022/12/30 10:32:16;;;;;;;;;;;6.30;99.90;;;;;;5084218;28;1147;-70
2022/12/30 10:34:43;;;;;;;;;;;6.20;99.90;;;;;;5081061;28;1110;-70
2022/12/30 10:37:11;;;;;;;;;;;6.30;99.90;;;;;;5078286;28;3241;-70
2022/12/30 10:39:41;;;;;;;;;;;6.40;99.90;;;;;;5082208;28;3349;-70
2022/12/30 10:42:10;;;;;;;;;;;6.40;99.90;;;;;;5071409;28;3121;-71
2022/12/30 10:44:56;;;;;;;;;;;6.40;99.90;;;;;;5073642;28;1294;-71
2022/12/30 10:47:30;;;;;;;;;;;6.50;99.90;;;;;;5072606;28;1335;-70
2022/12/30 10:49:59;;;;;;;;;;;6.60;99.90;;;;;;5075575;28;1133;-71
2022/12/30 10:52:24;;;;;;;;;;;6.70;99.90;;;;;;5074765;28;1146;-70
2022/12/30 10:54:50;;;;;;;;;;;6.70;99.90;;;;;;5076486;28;2637;-71
2022/12/30 10:57:19;;;;;;;;;;;6.80;99.90;;;;;;5060687;28;1114;-71
2022/12/30 10:59:45;;;;;;;;;;;6.80;99.90;;;;;;5079079;28;1246;-70
2022/12/30 11:02:16;;;;;;;;;;;6.90;99.90;;;;;;5076048;28;1997;-71
2022/12/30 11:04:42;;;;;;;;;;;6.90;99.90;;;;;;5073391;28;1399;-71
2022/12/30 11:07:09;;;;;;;;;;;7.10;99.90;;;;;;5082889;28;1145;-71
2022/12/30 11:09:35;;;;;;;;;;;7.20;99.90;;;;;;5081838;28;1265;-70
2022/12/30 11:14:54;;;;;;;;;;;7.50;99.90;;;;;;5064439;28;1157;-71
2022/12/30 11:17:22;;;;;;;;;;;7.70;99.90;;;;;;5072633;28;1146;-71
2022/12/30 11:19:49;;;;;;;;;;;7.90;99.90;;;;;;5079391;28;1333;-70
2022/12/30 11:22:14;;;;;;;;;;;7.90;99.90;;;;;;5076721;28;1987;-70
2022/12/30 11:24:44;;;;;;;;;;;7.90;99.90;;;;;;5069043;28;1527;-71
2022/12/30 11:27:10;;;;;;;;;;;7.80;99.90;;;;;;5072659;28;1213;-70
2022/12/30 11:29:36;;;;;;;;;;;7.80;99.90;;;;;;5074534;28;1282;-71
2022/12/30 11:32:09;;;;;;;;;;;7.70;99.90;;;;;;5070968;28;1569;-70
2022/12/30 11:34:36;;;;;;;;;;;7.70;99.90;;;;;;5078483;28;1307;-70
2022/12/30 11:37:19;;;;;;;;;;;7.60;99.90;;;;;;5077900;28;1142;-71
2022/12/30 11:39:45;;;;;;;;;;;7.50;99.90;;;;;;5075971;28;1291;-71
2022/12/30 11:42:27;;;;;;;;;;;7.50;99.90;;;;;;5075995;28;2028;-70
2022/12/30 11:45:11;;;;;;;;;;;7.50;99.90;;;;;;5089455;28;1100;-70
2022/12/30 11:47:42;;;;;;;;;;;7.50;99.90;;;;;;5084419;28;1410;-71
2022/12/30 11:50:13;;;;;;;;;;;7.50;99.90;;;;;;5091367;28;1079;-71
2022/12/30 11:52:39;;;;;;;;;;;7.50;99.90;;;;;;5089446;28;1119;-71
2022/12/30 11:55:05;;;;;;;;;;;7.50;99.90;;;;;;5081386;28;1203;-71
2022/12/30 11:57:32;;;;;;;;;;;7.40;99.90;;;;;;5082827;28;1269;-70
2022/12/30 12:00:00;;;;;;;;;;;7.50;99.90;;;;;;5069850;28;1143;-71
2022/12/30 12:02:30;;;;;;;;;;;7.50;99.90;;;;;;5083570;28;2002;-71
2022/12/30 12:04:56;;;;;;;;;;;7.60;99.90;;;;;;5084630;28;1486;-70
2022/12/30 12:07:25;;;;;;;;;;;7.60;99.90;;;;;;5081645;28;1226;-71
2022/12/30 12:09:54;;;;;;;;;;;7.60;99.90;;;;;;5082457;28;1290;-71
2022/12/30 12:12:22;;;;;;;;;;;7.60;99.90;;;;;;5070572;28;1314;-70
2022/12/30 12:14:48;;;;;;;;;;;7.60;99.90;;;;;;5080832;28;1210;-71
2022/12/30 12:17:25;;;;;;;;;;;7.60;99.90;;;;;;5083381;28;1285;-71
2022/12/30 12:19:55;;;;;;;;;;;7.60;99.90;;;;;;5082919;28;1295;-71
2022/12/30 12:22:27;;;;;;;;;;;7.70;99.90;;;;;;5080794;28;1942;-71
2022/12/30 12:24:56;;;;;;;;;;;7.70;99.90;;;;;;5082681;28;1247;-71
2022/12/30 12:27:24;;;;;;;;;;;7.70;99.90;;;;;;5083491;28;1280;-71
2022/12/30 12:29:50;;;;;;;;;;;7.70;99.90;;;;;;5079512;28;1262;-71
2022/12/30 12:32:15;;;;;;;;;;;7.80;99.90;;;;;;5082573;28;1246;-70
2022/12/30 12:34:55;;;;;;;;;;;8.90;99.90;;;;;;5081185;28;1164;-71
2022/12/30 12:37:21;;;;;;;;;;;7.80;99.90;;;;;;5080358;28;1227;-71
2022/12/30 12:39:59;;;;;;;;;;;7.90;99.90;;;;;;5069968;28;1283;-71
2022/12/30 12:42:30;;;;;;;;;;;7.90;99.90;;;;;;5080654;28;1910;-70
2022/12/30 12:45:06;;;;;;;;;;;7.90;99.90;;;;;;5070600;28;1179;-71
2022/12/30 12:47:34;;;;;;;;;;;7.80;99.90;;;;;;5068461;28;1287;-70
2022/12/30 12:50:04;;;;;;;;;;;7.90;99.90;;;;;;5080418;28;1349;-71
2022/12/30 12:52:46;;;;;;;;;;;7.90;99.90;;;;;;5075609;28;1301;-71
2022/12/30 12:55:30;;;;;;;;;;;7.90;99.90;;;;;;5080728;28;1302;-71
2022/12/30 12:57:58;;;;;;;;;;;8.00;99.90;;;;;;5083217;28;1223;-71
2022/12/30 13:00:29;;;;;;;;;;;8.10;99.90;;;;;;5085657;28;1258;-70
2022/12/30 13:03:04;;;;;;;;;;;8.10;99.90;;;;;;5079221;28;3092;-71
2022/12/30 13:05:33;;;;;;;;;;;8.20;99.90;;;;;;5072572;28;3135;-71
2022/12/30 13:08:05;;;;;;;;;;;8.20;99.90;;;;;;5058307;28;3215;-71
2022/12/30 13:10:32;;;;;;;;;;;8.20;99.90;;;;;;5078134;28;995;-71
2022/12/30 13:13:01;;;;;;;;;;;8.20;99.90;;;;;;5072764;28;1228;-71
2022/12/30 13:15:29;;;;;;;;;;;8.20;99.90;;;;;;5077212;28;1174;-71
2022/12/30 13:17:58;;;;;;;;;;;8.30;99.90;;;;;;5054339;28;1240;-71
2022/12/30 13:20:27;;;;;;;;;;;8.30;99.90;;;;;;5079580;28;2868;-71
2022/12/30 13:22:53;;;;;;;;;;;8.30;99.90;;;;;;5080896;28;1251;-71
2022/12/30 13:25:19;;;;;;;;;;;8.30;99.90;;;;;;5073279;28;1364;-71
2022/12/30 13:27:46;;;;;;;;;;;8.30;99.90;;;;;;5079488;28;1264;-71
2022/12/30 13:30:13;;;;;;;;;;;8.30;99.90;;;;;;5077612;28;1219;-71
2022/12/30 13:32:49;;;;;;;;;;;8.30;99.90;;;;;;5078719;28;1258;-71
2022/12/30 13:35:24;;;;;;;;;;;8.30;99.90;;;;;;5073943;28;1290;-71
2022/12/30 13:37:56;;;;;;;;;;;8.30;99.90;;;;;;5074970;28;1662;-71
2022/12/30 13:40:23;;;;;;;;;;;8.20;99.90;;;;;;5067592;28;1396;-71
2022/12/30 13:42:49;;;;;;;;;;;8.20;99.90;;;;;;5073126;28;2007;-71
2022/12/30 13:45:21;;;;;;;;;;;8.20;99.90;;;;;;5078235;28;1196;-71
2022/12/30 13:47:48;;;;;;;;;;;8.20;99.90;;;;;;5072663;28;1307;-71
2022/12/30 13:50:17;;;;;;;;;;;8.20;99.90;;;;;;5074823;28;1214;-71
2022/12/30 13:52:46;;;;;;;;;;;8.20;99.90;;;;;;5077076;28;1193;-71
2022/12/30 13:55:16;;;;;;;;;;;8.20;99.90;;;;;;5069579;28;1239;-71
2022/12/30 13:57:44;;;;;;;;;;;8.20;99.90;;;;;;5079077;28;1339;-71
2022/12/30 14:00:23;;;;;;;;;;;8.20;99.90;;;;;;5054161;28;2246;-71
2022/12/30 14:03:00;;;;;;;;;;;8.20;99.90;;;;;;5074158;28;1972;-71
2022/12/30 14:05:32;;;;;;;;;;;8.30;99.90;;;;;;5075653;28;1313;-71
2022/12/30 14:07:58;;;;;;;;;;;8.30;99.90;;;;;;5073935;28;1311;-71
2022/12/30 14:10:23;;;;;;;;;;;8.30;99.90;;;;;;5075831;28;1145;-71
2022/12/30 14:12:53;;;;;;;;;;;8.30;99.90;;;;;;5070562;28;1088;-71
2022/12/30 14:15:32;;;;;;;;;;;8.30;99.90;;;;;;5079776;28;1091;-71
2022/12/30 14:17:59;;;;;;;;;;;8.40;99.90;;;;;;5071288;28;1134;-72
2022/12/30 14:20:26;;;;;;;;;;;8.30;99.90;;;;;;5070348;28;1343;-71
2022/12/30 14:22:55;;;;;;;;;;;8.30;99.90;;;;;;5079552;28;1973;-71
2022/12/30 14:25:25;;;;;;;;;;;8.40;99.90;;;;;;5079877;28;1228;-71
2022/12/30 14:27:52;;;;;;;;;;;8.40;99.90;;;;;;5072681;28;1344;-71
2022/12/30 14:30:19;;;;;;;;;;;8.40;99.90;;;;;;5072129;28;1156;-72
2022/12/30 14:32:44;;;;;;;;;;;8.40;99.90;;;;;;5075367;28;1246;-71
2022/12/30 14:35:16;;;;;;;;;;;8.40;99.90;;;;;;5076671;28;1415;-71
2022/12/30 14:37:42;;;;;;;;;;;8.40;99.90;;;;;;5077234;28;1421;-71
2022/12/30 14:40:24;;;;;;;;;;;8.40;99.90;;;;;;5076489;28;1371;-71
2022/12/30 14:42:52;;;;;;;;;;;8.40;99.90;;;;;;5079808;28;1961;-71
2022/12/30 14:45:21;;;;;;;;;;;8.50;99.90;;;;;;5081465;28;1216;-71
2022/12/30 14:47:47;;;;;;;;;;;8.50;99.90;;;;;;5084882;28;1346;-71
2022/12/30 14:50:14;;;;;;;;;;;8.50;99.90;;;;;;5083040;28;1444;-71
2022/12/30 14:52:43;;;;;;;;;;;8.50;99.90;;;;;;5060221;28;1411;-71
2022/12/30 14:55:08;;;;;;;;;;;8.50;99.90;;;;;;5078646;28;1118;-71
2022/12/30 14:57:36;;;;;;;;;;;8.50;99.90;;;;;;5085073;28;1435;-70
2022/12/30 15:00:11;;;;;;;;;;;8.50;99.90;;;;;;5084237;28;1275;-71
2022/12/30 15:02:44;;;;;;;;;;;8.60;99.90;;;;;;5060028;28;1959;-71
2022/12/30 15:05:14;;;;;;;;;;;8.50;99.90;;;;;;5081530;28;1301;-71
2022/12/30 15:07:40;;;;;;;;;;;8.50;99.90;;;;;;5082490;28;1122;-71
2022/12/30 15:10:21;;;;;;;;;;;8.50;99.90;;;;;;5079060;28;1169;-71
2022/12/30 15:12:47;;;;;;;;;;;8.50;99.90;;;;;;5080663;28;1141;-71
2022/12/30 15:15:18;;;;;;;;;;;8.50;99.90;;;;;;5079514;28;1210;-71
2022/12/30 15:17:45;;;;;;;;;;;8.50;99.90;;;;;;5079541;28;1192;-71
2022/12/30 15:20:23;;;;;;;;;;;8.50;99.90;;;;;;5070657;28;1278;-72
2022/12/30 15:22:50;;;;;;;;;;;8.40;99.90;;;;;;5082473;28;1985;-71
2022/12/30 15:25:16;;;;;;;;;;;8.40;99.90;;;;;;5083292;28;1278;-72
2022/12/30 15:27:43;;;;;;;;;;;8.40;99.90;;;;;;5083109;28;1250;-71
2022/12/30 15:30:13;;;;;;;;;;;8.30;99.90;;;;;;5085062;28;1190;-71
2022/12/30 15:32:39;;;;;;;;;;;8.30;99.90;;;;;;5090021;28;1149;-72
2022/12/30 15:35:07;;;;;;;;;;;8.20;99.90;;;;;;5091568;28;1147;-71
2022/12/30 15:37:33;;;;;;;;;;;8.20;99.90;;;;;;5087826;28;1224;-71
2022/12/30 15:40:00;;;;;;;;;;;8.20;99.90;;;;;;5090912;28;1209;-71